Time,TemperatureF,DewpointF,PressureIn,WindDirection,WindDirectionDegrees,WindSpeedMPH,WindSpeedGustMPH,Humidity,HourlyPrecipIn,Conditions,Clouds,dailyrainin,SoftwareType,DateUTC
2013-06-26 00:01:00,72.7,70.0,29.72,North,0,3.8,3.8,91,0.00,,,0.00,meteobridge,2013-06-26 04:01:00,
2013-06-26 00:03:00,72.7,70.0,29.72,North,0,3.8,3.8,91,0.00,,,0.00,meteobridge,2013-06-26 04:03:00,
2013-06-26 00:08:00,72.5,69.8,29.73,NE,45,0.7,3.8,91,0.00,,,0.00,meteobridge,2013-06-26 04:08:00,
2013-06-26 00:13:00,72.5,69.8,29.72,West,270,0.7,1.6,91,0.00,,,0.00,meteobridge,2013-06-26 04:13:00,
2013-06-26 00:18:00,72.3,69.6,29.72,NE,45,0.7,0.7,91,0.00,,,0.00,meteobridge,2013-06-26 04:18:00,
2013-06-26 00:23:00,72.3,69.6,29.72,SE,135,0.0,0.7,91,0.00,,,0.00,meteobridge,2013-06-26 04:23:00,
2013-06-26 00:29:00,72.1,69.4,29.72,East,90,1.6,1.6,91,0.00,,,0.00,meteobridge,2013-06-26 04:29:00,
2013-06-26 00:34:00,72.1,69.4,29.72,SE,135,0.7,0.7,91,0.00,,,0.00,meteobridge,2013-06-26 04:34:00,
2013-06-26 00:39:00,72.1,69.4,29.72,NW,315,0.7,0.7,91,0.00,,,0.00,meteobridge,2013-06-26 04:39:00,
2013-06-26 00:44:00,72.1,69.4,29.72,West,270,0.7,1.6,91,0.00,,,0.00,meteobridge,2013-06-26 04:44:00,
2013-06-26 00:49:00,72.0,69.3,29.72,NE,45,1.6,1.6,91,0.00,,,0.00,meteobridge,2013-06-26 04:49:00,
2013-06-26 00:54:00,72.0,69.3,29.72,NW,315,1.6,1.6,91,0.00,,,0.00,meteobridge,2013-06-26 04:54:00,
2013-06-26 01:00:00,72.0,69.3,29.72,North,0,1.6,1.6,91,0.00,,,0.00,meteobridge,2013-06-26 05:00:00,
2013-06-26 01:05:00,72.0,69.3,29.72,East,90,1.6,2.2,91,0.00,,,0.00,meteobridge,2013-06-26 05:05:00,
2013-06-26 01:10:00,72.1,69.4,29.72,West,270,0.7,1.6,91,0.00,,,0.00,meteobridge,2013-06-26 05:10:00,
2013-06-26 01:15:00,72.1,69.4,29.72,SE,135,0.7,1.6,91,0.00,,,0.00,meteobridge,2013-06-26 05:15:00,
2013-06-26 01:20:00,72.1,69.4,29.71,South,180,1.6,1.6,91,0.00,,,0.00,meteobridge,2013-06-26 05:20:00,
2013-06-26 01:25:00,72.1,69.4,29.71,East,90,0.7,0.7,91,0.00,,,0.00,meteobridge,2013-06-26 05:25:00,
2013-06-26 01:31:00,72.0,69.3,29.71,NE,45,0.7,0.7,91,0.00,,,0.00,meteobridge,2013-06-26 05:31:00,
2013-06-26 01:36:00,72.1,69.4,29.71,East,90,0.7,0.7,91,0.00,,,0.00,meteobridge,2013-06-26 05:36:00,
2013-06-26 01:41:00,72.1,69.4,29.71,West,270,1.6,1.6,91,0.00,,,0.00,meteobridge,2013-06-26 05:41:00,
2013-06-26 01:46:00,72.1,69.1,29.71,East,90,0.0,0.7,90,0.00,,,0.00,meteobridge,2013-06-26 05:46:00,
2013-06-26 01:51:00,72.3,69.3,29.71,South,180,3.1,3.1,90,0.00,,,0.00,meteobridge,2013-06-26 05:51:00,
2013-06-26 01:57:00,72.3,69.3,29.71,SW,225,0.7,1.6,90,0.00,,,0.00,meteobridge,2013-06-26 05:57:00,
2013-06-26 02:02:00,72.3,69.3,29.71,East,90,1.6,1.6,90,0.00,,,0.00,meteobridge,2013-06-26 06:02:00,
2013-06-26 02:07:00,72.3,69.3,29.71,East,90,1.6,1.6,90,0.00,,,0.00,meteobridge,2013-06-26 06:07:00,
2013-06-26 02:12:00,72.0,68.9,29.71,East,90,0.7,1.6,90,0.00,,,0.00,meteobridge,2013-06-26 06:12:00,
2013-06-26 02:17:00,72.0,68.9,29.71,NE,45,0.7,3.1,90,0.00,,,0.00,meteobridge,2013-06-26 06:17:00,
2013-06-26 02:22:00,72.0,68.9,29.71,NW,315,0.7,0.7,90,0.00,,,0.00,meteobridge,2013-06-26 06:22:00,
2013-06-26 02:28:00,72.0,68.9,29.71,ENE,68,0.7,2.2,90,0.00,,,0.00,meteobridge,2013-06-26 06:28:00,
2013-06-26 02:33:00,72.1,69.4,29.71,North,0,0.7,1.6,91,0.00,,,0.00,meteobridge,2013-06-26 06:33:00,
2013-06-26 02:38:00,72.1,69.4,29.71,NE,45,0.7,1.6,91,0.00,,,0.00,meteobridge,2013-06-26 06:38:00,
2013-06-26 02:43:00,72.0,69.3,29.70,SW,225,2.2,2.2,91,0.00,,,0.00,meteobridge,2013-06-26 06:43:00,
2013-06-26 02:48:00,72.0,69.3,29.71,South,180,0.7,0.7,91,0.00,,,0.00,meteobridge,2013-06-26 06:48:00,
2013-06-26 02:53:00,71.8,69.1,29.70,South,180,0.7,1.6,91,0.00,,,0.00,meteobridge,2013-06-26 06:53:00,
2013-06-26 02:59:00,71.6,68.9,29.70,ESE,113,0.7,1.6,91,0.00,,,0.00,meteobridge,2013-06-26 06:59:00,
2013-06-26 03:04:00,71.6,68.9,29.70,West,270,0.7,0.7,91,0.00,,,0.00,meteobridge,2013-06-26 07:04:00,
2013-06-26 03:09:00,71.6,68.9,29.70,North,0,1.6,1.6,91,0.00,,,0.00,meteobridge,2013-06-26 07:09:00,
2013-06-26 03:14:00,71.6,68.9,29.70,West,270,0.7,0.7,91,0.00,,,0.00,meteobridge,2013-06-26 07:14:00,
2013-06-26 03:19:00,71.4,69.3,29.70,NE,45,1.6,1.6,93,0.00,,,0.00,meteobridge,2013-06-26 07:19:00,
2013-06-26 03:24:00,71.4,69.3,29.70,West,270,0.7,0.7,93,0.00,,,0.00,meteobridge,2013-06-26 07:24:00,
2013-06-26 03:30:00,71.4,69.3,29.70,NE,45,0.7,0.7,93,0.00,,,0.00,meteobridge,2013-06-26 07:30:00,
2013-06-26 03:35:00,71.6,69.1,29.70,SW,225,0.7,0.7,92,0.00,,,0.00,meteobridge,2013-06-26 07:35:00,
2013-06-26 03:40:00,71.6,69.1,29.70,SW,225,1.6,1.6,92,0.00,,,0.00,meteobridge,2013-06-26 07:40:00,
2013-06-26 03:45:00,71.6,69.1,29.70,NE,45,0.7,0.7,92,0.00,,,0.00,meteobridge,2013-06-26 07:45:00,
2013-06-26 03:50:00,71.4,69.3,29.70,North,0,0.7,0.7,93,0.00,,,0.00,meteobridge,2013-06-26 07:50:00,
2013-06-26 03:55:00,71.2,69.1,29.70,North,0,0.0,0.7,93,0.00,,,0.00,meteobridge,2013-06-26 07:55:00,
2013-06-26 04:01:00,71.2,69.1,29.70,South,180,0.0,1.6,93,0.00,,,0.00,meteobridge,2013-06-26 08:01:00,
2013-06-26 04:06:00,71.2,69.1,29.70,South,180,0.0,0.0,93,0.00,,,0.00,meteobridge,2013-06-26 08:06:00,
2013-06-26 04:11:00,71.2,69.1,29.70,West,270,0.0,0.0,93,0.00,,,0.00,meteobridge,2013-06-26 08:11:00,
2013-06-26 04:16:00,71.2,69.1,29.70,West,270,0.7,0.7,93,0.00,,,0.00,meteobridge,2013-06-26 08:16:00,
2013-06-26 04:21:00,71.2,69.1,29.71,SSW,203,0.7,0.7,93,0.00,,,0.00,meteobridge,2013-06-26 08:21:00,
2013-06-26 04:26:00,71.4,69.3,29.71,NW,315,0.7,0.7,93,0.00,,,0.00,meteobridge,2013-06-26 08:26:00,
2013-06-26 04:32:00,71.4,69.3,29.71,SW,225,0.7,0.7,93,0.00,,,0.00,meteobridge,2013-06-26 08:32:00,
2013-06-26 04:37:00,71.4,69.3,29.71,East,90,0.7,0.7,93,0.00,,,0.00,meteobridge,2013-06-26 08:37:00,
2013-06-26 04:42:00,71.2,69.1,29.72,NE,45,1.6,1.6,93,0.00,,,0.00,meteobridge,2013-06-26 08:42:00,
2013-06-26 04:47:00,71.2,69.1,29.72,NW,315,0.7,1.6,93,0.00,,,0.00,meteobridge,2013-06-26 08:47:00,
2013-06-26 04:52:00,71.2,69.1,29.72,South,180,0.0,0.7,93,0.00,,,0.00,meteobridge,2013-06-26 08:52:00,
2013-06-26 04:57:00,71.2,69.1,29.72,SW,225,0.0,0.7,93,0.00,,,0.00,meteobridge,2013-06-26 08:57:00,
2013-06-26 05:03:00,71.2,69.1,29.72,East,90,0.7,0.7,93,0.00,,,0.00,meteobridge,2013-06-26 09:03:00,
2013-06-26 05:08:00,71.2,69.1,29.72,WSW,248,0.7,0.7,93,0.00,,,0.00,meteobridge,2013-06-26 09:08:00,
2013-06-26 05:13:00,71.4,69.3,29.72,SW,225,0.0,0.7,93,0.00,,,0.00,meteobridge,2013-06-26 09:13:00,
2013-06-26 05:18:00,71.2,69.1,29.71,NE,45,0.7,0.7,93,0.00,,,0.00,meteobridge,2013-06-26 09:18:00,
2013-06-26 05:23:00,71.2,69.1,29.72,East,90,0.0,0.7,93,0.00,,,0.00,meteobridge,2013-06-26 09:23:00,
2013-06-26 05:28:00,71.2,69.1,29.72,East,90,0.0,0.7,93,0.00,,,0.00,meteobridge,2013-06-26 09:28:00,
2013-06-26 05:34:00,71.2,69.1,29.72,NW,315,0.0,0.0,93,0.00,,,0.00,meteobridge,2013-06-26 09:34:00,
2013-06-26 05:39:00,71.2,69.1,29.72,East,90,0.0,0.0,93,0.00,,,0.00,meteobridge,2013-06-26 09:39:00,
2013-06-26 05:44:00,71.2,69.1,29.72,West,270,0.7,1.6,93,0.00,,,0.00,meteobridge,2013-06-26 09:44:00,
2013-06-26 05:49:00,71.2,69.1,29.72,SW,225,2.2,2.2,93,0.00,,,0.00,meteobridge,2013-06-26 09:49:00,
2013-06-26 05:54:00,71.4,69.3,29.72,North,0,0.0,0.0,93,0.00,,,0.00,meteobridge,2013-06-26 09:54:00,
2013-06-26 05:59:00,71.6,69.1,29.72,NW,315,0.0,1.6,92,0.00,,,0.00,meteobridge,2013-06-26 09:59:00,
2013-06-26 06:05:00,71.8,69.3,29.73,NE,45,0.7,0.7,92,0.00,,,0.00,meteobridge,2013-06-26 10:05:00,
2013-06-26 06:10:00,72.0,69.4,29.72,West,270,0.7,0.7,92,0.00,,,0.00,meteobridge,2013-06-26 10:10:00,
2013-06-26 06:15:00,72.1,69.6,29.73,South,180,1.6,2.2,92,0.00,,,0.00,meteobridge,2013-06-26 10:15:00,
2013-06-26 06:20:00,72.3,69.8,29.73,East,90,1.6,1.6,92,0.00,,,0.00,meteobridge,2013-06-26 10:20:00,
2013-06-26 06:25:00,72.7,70.2,29.73,West,270,0.0,1.6,92,0.00,,,0.00,meteobridge,2013-06-26 10:25:00,
2013-06-26 06:30:00,72.7,70.0,29.72,NW,315,0.7,0.7,91,0.00,,,0.00,meteobridge,2013-06-26 10:30:00,
2013-06-26 06:36:00,73.0,70.3,29.73,West,270,0.0,0.0,91,0.00,,,0.00,meteobridge,2013-06-26 10:36:00,
2013-06-26 06:41:00,73.2,70.5,29.72,South,180,0.7,1.6,91,0.00,,,0.00,meteobridge,2013-06-26 10:41:00,
2013-06-26 06:46:00,73.4,70.5,29.72,NE,45,0.7,0.7,91,0.00,,,0.00,meteobridge,2013-06-26 10:46:00,
2013-06-26 06:51:00,73.6,70.7,29.72,East,90,0.7,0.7,91,0.00,,,0.00,meteobridge,2013-06-26 10:51:00,
2013-06-26 06:56:00,73.8,70.7,29.73,SE,135,0.7,1.6,90,0.00,,,0.00,meteobridge,2013-06-26 10:56:00,
2013-06-26 07:01:00,74.1,71.1,29.72,SW,225,1.6,1.6,90,0.00,,,0.00,meteobridge,2013-06-26 11:01:00,
2013-06-26 07:07:00,74.5,71.4,29.72,South,180,0.7,0.7,90,0.00,,,0.00,meteobridge,2013-06-26 11:07:00,
2013-06-26 07:12:00,74.8,71.4,29.72,West,270,1.6,1.6,89,0.00,,,0.00,meteobridge,2013-06-26 11:12:00,
2013-06-26 07:17:00,75.2,71.4,29.72,SE,135,0.0,0.7,88,0.00,,,0.00,meteobridge,2013-06-26 11:17:00,
2013-06-26 07:22:00,75.6,71.4,29.72,West,270,0.0,0.7,87,0.00,,,0.00,meteobridge,2013-06-26 11:22:00,
2013-06-26 07:27:00,76.1,72.0,29.73,East,90,0.7,0.7,87,0.00,,,0.00,meteobridge,2013-06-26 11:27:00,
2013-06-26 07:33:00,76.6,72.1,29.73,East,90,0.7,1.6,86,0.00,,,0.00,meteobridge,2013-06-26 11:33:00,
2013-06-26 07:38:00,76.8,72.3,29.73,SE,135,0.0,0.7,86,0.00,,,0.00,meteobridge,2013-06-26 11:38:00,
2013-06-26 07:43:00,76.8,72.0,29.73,NW,315,0.0,0.7,85,0.00,,,0.00,meteobridge,2013-06-26 11:43:00,
2013-06-26 07:48:00,76.8,72.0,29.73,SE,135,0.0,1.6,85,0.00,,,0.00,meteobridge,2013-06-26 11:48:00,
2013-06-26 07:53:00,76.6,71.8,29.73,East,90,0.0,0.7,85,0.00,,,0.00,meteobridge,2013-06-26 11:53:00,
2013-06-26 07:58:00,76.8,72.0,29.74,NNW,338,1.6,1.6,85,0.00,,,0.00,meteobridge,2013-06-26 11:58:00,
2013-06-26 08:04:00,77.2,72.0,29.74,SW,225,0.7,0.7,84,0.00,,,0.00,meteobridge,2013-06-26 12:04:00,
2013-06-26 08:09:00,77.5,72.3,29.74,South,180,2.2,2.2,84,0.00,,,0.00,meteobridge,2013-06-26 12:09:00,
2013-06-26 08:14:00,77.7,72.1,29.74,South,180,0.0,0.0,83,0.00,,,0.00,meteobridge,2013-06-26 12:14:00,
2013-06-26 08:19:00,78.1,72.5,29.74,NE,45,1.6,1.6,83,0.00,,,0.00,meteobridge,2013-06-26 12:19:00,
2013-06-26 08:24:00,78.3,72.7,29.75,North,0,1.6,1.6,83,0.00,,,0.00,meteobridge,2013-06-26 12:24:00,
2013-06-26 08:29:00,78.4,72.5,29.75,NW,315,1.6,1.6,82,0.00,,,0.00,meteobridge,2013-06-26 12:29:00,
2013-06-26 08:35:00,78.3,71.6,29.75,NE,45,0.7,0.7,80,0.00,,,0.00,meteobridge,2013-06-26 12:35:00,
2013-06-26 08:40:00,77.9,71.6,29.74,NE,45,0.0,3.1,81,0.00,,,0.00,meteobridge,2013-06-26 12:40:00,
2013-06-26 08:45:00,77.9,72.0,29.74,SW,225,1.6,1.6,82,0.00,,,0.00,meteobridge,2013-06-26 12:45:00,
2013-06-26 08:50:00,78.4,72.5,29.74,North,0,0.7,3.8,82,0.00,,,0.00,meteobridge,2013-06-26 12:50:00,
2013-06-26 08:55:00,78.8,72.1,29.74,North,0,0.0,2.2,80,0.00,,,0.00,meteobridge,2013-06-26 12:55:00,
2013-06-26 08:56:00,79.0,72.3,29.74,NE,45,0.7,2.2,80,0.00,,,0.00,meteobridge,2013-06-26 12:56:00,
2013-06-26 09:01:00,79.3,72.7,29.74,NE,45,0.7,0.7,80,0.00,,,0.00,meteobridge,2013-06-26 13:01:00,
2013-06-26 09:06:00,79.9,72.9,29.74,SW,225,0.7,0.7,79,0.00,,,0.00,meteobridge,2013-06-26 13:06:00,
2013-06-26 09:11:00,80.4,72.9,29.74,NE,45,0.7,1.6,78,0.00,,,0.00,meteobridge,2013-06-26 13:11:00,
2013-06-26 09:16:00,81.0,73.0,29.74,SE,135,0.7,1.6,77,0.00,,,0.00,meteobridge,2013-06-26 13:16:00,
2013-06-26 09:22:00,81.3,72.7,29.74,ESE,113,1.6,1.6,75,0.00,,,0.00,meteobridge,2013-06-26 13:22:00,
2013-06-26 09:27:00,81.5,72.9,29.74,SW,225,1.6,1.6,75,0.00,,,0.00,meteobridge,2013-06-26 13:27:00,
2013-06-26 09:32:00,81.9,72.3,29.74,NW,315,0.7,1.6,73,0.00,,,0.00,meteobridge,2013-06-26 13:32:00,
2013-06-26 09:37:00,82.0,72.9,29.74,SW,225,1.6,2.2,74,0.00,,,0.00,meteobridge,2013-06-26 13:37:00,
2013-06-26 09:42:00,82.0,72.5,29.74,NE,45,0.7,1.6,73,0.00,,,0.00,meteobridge,2013-06-26 13:42:00,
2013-06-26 09:47:00,82.4,72.9,29.74,NE,45,1.6,1.6,73,0.00,,,0.00,meteobridge,2013-06-26 13:47:00,
2013-06-26 09:53:00,82.0,72.5,29.74,SE,135,1.6,1.6,73,0.00,,,0.00,meteobridge,2013-06-26 13:53:00,
2013-06-26 09:58:00,82.6,73.0,29.74,NE,45,1.6,1.6,73,0.00,,,0.00,meteobridge,2013-06-26 13:58:00,
2013-06-26 10:03:00,83.3,73.4,29.74,ENE,68,0.7,1.6,72,0.00,,,0.00,meteobridge,2013-06-26 14:03:00,
2013-06-26 10:08:00,84.0,73.6,29.74,West,270,1.6,2.2,71,0.00,,,0.00,meteobridge,2013-06-26 14:08:00,
2013-06-26 10:13:00,85.8,73.9,29.74,SW,225,1.6,1.6,68,0.00,,,0.00,meteobridge,2013-06-26 14:13:00,
2013-06-26 10:18:00,87.8,74.5,29.74,SE,135,1.6,1.6,65,0.00,,,0.00,meteobridge,2013-06-26 14:18:00,
2013-06-26 10:24:00,88.5,73.8,29.75,NE,45,1.6,1.6,62,0.00,,,0.00,meteobridge,2013-06-26 14:24:00,
2013-06-26 10:29:00,90.1,75.4,29.75,SW,225,1.6,1.6,62,0.00,,,0.00,meteobridge,2013-06-26 14:29:00,
2013-06-26 10:34:00,90.9,74.1,29.74,SW,225,0.7,1.6,58,0.00,,,0.00,meteobridge,2013-06-26 14:34:00,
2013-06-26 10:39:00,92.5,74.5,29.74,SE,135,0.7,0.7,56,0.00,,,0.00,meteobridge,2013-06-26 14:39:00,
2013-06-26 10:44:00,93.6,74.5,29.74,SE,135,1.6,2.2,54,0.00,,,0.00,meteobridge,2013-06-26 14:44:00,
2013-06-26 10:49:00,93.4,73.8,29.74,NE,45,1.6,1.6,53,0.00,,,0.00,meteobridge,2013-06-26 14:49:00,
2013-06-26 10:55:00,93.4,73.0,29.74,SW,225,1.6,1.6,52,0.00,,,0.00,meteobridge,2013-06-26 14:55:00,
2013-06-26 11:00:00,93.7,72.9,29.74,NE,45,1.6,1.6,51,0.00,,,0.00,meteobridge,2013-06-26 15:00:00,
2013-06-26 11:05:00,93.4,72.0,29.74,East,90,0.7,1.6,50,0.00,,,0.00,meteobridge,2013-06-26 15:05:00,
2013-06-26 11:10:00,93.4,72.5,29.74,East,90,0.7,1.6,51,0.00,,,0.00,meteobridge,2013-06-26 15:10:00,
2013-06-26 11:15:00,94.5,72.9,29.74,West,270,1.6,1.6,50,0.00,,,0.00,meteobridge,2013-06-26 15:15:00,
2013-06-26 11:20:00,94.3,72.1,29.74,West,270,2.2,2.2,49,0.00,,,0.00,meteobridge,2013-06-26 15:20:00,
2013-06-26 11:26:00,93.6,70.9,29.74,SW,225,1.6,1.6,48,0.00,,,0.00,meteobridge,2013-06-26 15:26:00,
2013-06-26 11:31:00,93.4,71.4,29.74,SW,225,1.6,1.6,49,0.00,,,0.00,meteobridge,2013-06-26 15:31:00,
2013-06-26 11:36:00,93.2,72.3,29.75,NE,45,1.6,2.2,51,0.00,,,0.00,meteobridge,2013-06-26 15:36:00,
2013-06-26 11:41:00,93.2,71.2,29.75,South,180,2.2,2.2,49,0.00,,,0.00,meteobridge,2013-06-26 15:41:00,
2013-06-26 11:46:00,93.0,72.1,29.75,West,270,1.6,2.2,51,0.00,,,0.00,meteobridge,2013-06-26 15:46:00,
2013-06-26 11:51:00,93.6,71.6,29.75,North,0,0.7,2.2,49,0.00,,,0.00,meteobridge,2013-06-26 15:51:00,
2013-06-26 11:57:00,94.5,72.9,29.75,West,270,1.6,1.6,50,0.00,,,0.00,meteobridge,2013-06-26 15:57:00,
2013-06-26 12:02:00,95.0,71.6,29.75,West,270,0.7,1.6,47,0.00,,,0.00,meteobridge,2013-06-26 16:02:00,
2013-06-26 12:07:00,95.5,72.1,29.75,ESE,113,1.6,2.2,47,0.00,,,0.00,meteobridge,2013-06-26 16:07:00,
2013-06-26 12:12:00,95.5,72.1,29.75,East,90,1.6,1.6,47,0.00,,,0.00,meteobridge,2013-06-26 16:12:00,
2013-06-26 12:17:00,96.1,72.0,29.75,North,0,0.7,0.7,46,0.00,,,0.00,meteobridge,2013-06-26 16:17:00,
2013-06-26 12:22:00,95.0,70.3,29.75,North,0,1.6,2.2,45,0.00,,,0.00,meteobridge,2013-06-26 16:22:00,
2013-06-26 12:28:00,95.0,70.3,29.75,SW,225,0.7,1.6,45,0.00,,,0.00,meteobridge,2013-06-26 16:28:00,
2013-06-26 12:33:00,95.0,69.6,29.74,East,90,1.6,1.6,44,0.00,,,0.00,meteobridge,2013-06-26 16:33:00,
2013-06-26 12:38:00,95.0,70.3,29.75,East,90,2.2,2.2,45,0.00,,,0.00,meteobridge,2013-06-26 16:38:00,
2013-06-26 12:43:00,95.5,70.9,29.75,SE,135,0.7,1.6,45,0.00,,,0.00,meteobridge,2013-06-26 16:43:00,
2013-06-26 12:48:00,96.6,71.1,29.75,ESE,113,1.6,2.2,44,0.00,,,0.00,meteobridge,2013-06-26 16:48:00,
2013-06-26 12:53:00,96.8,71.2,29.75,South,180,1.6,1.6,44,0.00,,,0.00,meteobridge,2013-06-26 16:53:00,
2013-06-26 12:59:00,95.9,71.1,29.74,East,90,0.7,0.7,45,0.00,,,0.00,meteobridge,2013-06-26 16:59:00,
2013-06-26 13:04:00,96.3,71.4,29.74,NW,315,1.6,1.6,45,0.00,,,0.00,meteobridge,2013-06-26 17:04:00,
2013-06-26 13:09:00,96.4,71.6,29.73,NE,45,2.2,2.2,45,0.00,,,0.00,meteobridge,2013-06-26 17:09:00,
2013-06-26 13:14:00,95.0,70.3,29.73,West,270,0.7,1.6,45,0.00,,,0.00,meteobridge,2013-06-26 17:14:00,
2013-06-26 13:19:00,95.0,70.3,29.72,NE,45,0.7,1.6,45,0.00,,,0.00,meteobridge,2013-06-26 17:19:00,
2013-06-26 13:24:00,95.0,70.9,29.73,West,270,0.7,1.6,46,0.00,,,0.00,meteobridge,2013-06-26 17:24:00,
2013-06-26 13:30:00,95.4,71.2,29.72,South,180,0.7,2.2,46,0.00,,,0.00,meteobridge,2013-06-26 17:30:00,
2013-06-26 13:35:00,95.0,70.9,29.72,South,180,0.7,2.2,46,0.00,,,0.00,meteobridge,2013-06-26 17:35:00,
2013-06-26 13:40:00,95.0,70.9,29.73,West,270,0.7,2.2,46,0.00,,,0.00,meteobridge,2013-06-26 17:40:00,
2013-06-26 13:45:00,94.8,72.1,29.73,North,0,0.7,0.7,48,0.00,,,0.00,meteobridge,2013-06-26 17:45:00,
2013-06-26 13:50:00,94.8,72.1,29.73,SE,135,1.6,1.6,48,0.00,,,0.00,meteobridge,2013-06-26 17:50:00,
2013-06-26 13:55:00,94.5,71.8,29.73,South,180,0.7,0.7,48,0.00,,,0.00,meteobridge,2013-06-26 17:55:00,
2013-06-26 14:01:00,95.0,71.6,29.73,SW,225,0.7,3.1,47,0.00,,,0.00,meteobridge,2013-06-26 18:01:00,
2013-06-26 14:06:00,94.1,71.4,29.72,South,180,0.7,1.6,48,0.00,,,0.00,meteobridge,2013-06-26 18:06:00,
2013-06-26 14:11:00,94.1,72.0,29.72,West,270,0.0,1.6,49,0.00,,,0.00,meteobridge,2013-06-26 18:11:00,
2013-06-26 14:16:00,93.7,71.6,29.72,South,180,1.6,2.2,49,0.00,,,0.00,meteobridge,2013-06-26 18:16:00,
2013-06-26 14:21:00,92.3,71.6,29.72,NW,315,1.6,2.2,51,0.00,,,0.00,meteobridge,2013-06-26 18:21:00,
2013-06-26 14:26:00,91.4,70.7,29.72,West,270,0.7,1.6,51,0.00,,,0.00,meteobridge,2013-06-26 18:26:00,
2013-06-26 14:32:00,91.2,71.1,29.72,SE,135,3.8,3.8,52,0.00,,,0.00,meteobridge,2013-06-26 18:32:00,
2013-06-26 14:37:00,90.3,70.9,29.72,NW,315,0.7,2.2,53,0.00,,,0.00,meteobridge,2013-06-26 18:37:00,
2013-06-26 14:42:00,89.8,70.3,29.72,North,0,2.2,2.2,53,0.00,,,0.00,meteobridge,2013-06-26 18:42:00,
2013-06-26 14:47:00,89.1,70.7,29.73,NW,315,1.6,2.2,55,0.00,,,0.00,meteobridge,2013-06-26 18:47:00,
2013-06-26 14:52:00,87.8,69.6,29.72,South,180,0.7,1.6,55,0.00,,,0.00,meteobridge,2013-06-26 18:52:00,
2013-06-26 14:58:00,86.2,69.1,29.73,NE,45,3.1,3.1,57,0.00,,,0.00,meteobridge,2013-06-26 18:58:00,
2013-06-26 15:03:00,85.3,69.3,29.72,West,270,1.6,1.6,59,0.00,,,0.00,meteobridge,2013-06-26 19:03:00,
2013-06-26 15:08:00,84.9,69.4,29.75,NE,45,1.6,1.6,60,0.00,,,0.00,meteobridge,2013-06-26 19:08:00,
2013-06-26 15:13:00,83.7,69.3,29.74,East,90,5.4,5.4,62,0.00,,,0.00,meteobridge,2013-06-26 19:13:00,
2013-06-26 15:18:00,82.0,69.1,29.73,West,270,2.2,2.2,65,0.00,,,0.00,meteobridge,2013-06-26 19:18:00,
2013-06-26 15:23:00,83.1,70.2,29.73,West,270,0.7,1.6,65,0.00,,,0.00,meteobridge,2013-06-26 19:23:00,
2013-06-26 15:29:00,83.1,70.2,29.73,East,90,1.6,1.6,65,0.00,,,0.00,meteobridge,2013-06-26 19:29:00,
2013-06-26 15:34:00,82.9,70.0,29.73,SE,135,1.6,1.6,65,0.00,,,0.00,meteobridge,2013-06-26 19:34:00,
2013-06-26 15:39:00,82.6,70.0,29.73,NE,45,2.2,2.2,66,0.00,,,0.00,meteobridge,2013-06-26 19:39:00,
2013-06-26 15:44:00,82.0,70.0,29.73,South,180,1.6,1.6,67,0.00,,,0.00,meteobridge,2013-06-26 19:44:00,
2013-06-26 15:49:00,82.4,70.3,29.74,SW,225,3.1,3.1,67,0.00,,,0.00,meteobridge,2013-06-26 19:49:00,
2013-06-26 15:54:00,81.3,69.3,29.74,East,90,1.6,3.8,67,0.00,,,0.00,meteobridge,2013-06-26 19:54:00,
2013-06-26 16:00:00,80.4,69.8,29.74,NE,45,1.6,2.2,70,0.00,,,0.00,meteobridge,2013-06-26 20:00:00,
2013-06-26 16:05:00,79.5,69.6,29.74,NE,45,0.7,0.7,72,0.00,,,0.00,meteobridge,2013-06-26 20:05:00,
2013-06-26 16:10:00,79.5,70.2,29.74,NE,45,1.6,1.6,73,0.00,,,0.00,meteobridge,2013-06-26 20:10:00,
2013-06-26 16:15:00,79.0,69.6,29.74,North,0,0.7,2.2,73,0.00,,,0.00,meteobridge,2013-06-26 20:15:00,
2013-06-26 16:20:00,78.6,69.6,29.74,East,90,0.7,0.7,74,0.00,,,0.00,meteobridge,2013-06-26 20:20:00,
2013-06-26 16:25:00,79.3,70.3,29.74,NE,45,1.6,1.6,74,0.00,,,0.00,meteobridge,2013-06-26 20:25:00,
2013-06-26 16:31:00,79.2,69.8,29.74,NE,45,1.6,1.6,73,0.00,,,0.00,meteobridge,2013-06-26 20:31:00,
2013-06-26 16:36:00,78.8,69.8,29.74,East,90,0.7,0.7,74,0.00,,,0.00,meteobridge,2013-06-26 20:36:00,
2013-06-26 16:41:00,78.6,70.0,29.74,NE,45,1.6,1.6,75,0.00,,,0.00,meteobridge,2013-06-26 20:41:00,
2013-06-26 16:46:00,78.1,69.4,29.74,NE,45,0.7,1.6,75,0.00,,,0.00,meteobridge,2013-06-26 20:46:00,
2013-06-26 16:51:00,77.9,69.8,29.74,West,270,0.7,1.6,76,0.00,,,0.00,meteobridge,2013-06-26 20:51:00,
2013-06-26 16:56:00,77.5,69.8,29.74,SW,225,0.0,0.7,77,0.00,,,0.00,meteobridge,2013-06-26 20:56:00,
2013-06-26 17:02:00,77.2,69.8,29.73,NE,45,0.7,0.7,78,0.00,,,0.00,meteobridge,2013-06-26 21:02:00,
2013-06-26 17:07:00,76.8,70.5,29.73,West,270,0.0,0.7,81,0.00,,,0.00,meteobridge,2013-06-26 21:07:00,
2013-06-26 17:12:00,77.0,70.7,29.73,NE,45,1.6,1.6,81,0.00,,,0.00,meteobridge,2013-06-26 21:12:00,
2013-06-26 17:17:00,76.6,70.7,29.73,NE,45,0.0,0.0,82,0.00,,,0.00,meteobridge,2013-06-26 21:17:00,
2013-06-26 17:22:00,76.6,71.1,29.72,NW,315,0.7,0.7,83,0.00,,,0.00,meteobridge,2013-06-26 21:22:00,
2013-06-26 17:27:00,76.8,71.6,29.72,NE,45,1.6,1.6,84,0.00,,,0.00,meteobridge,2013-06-26 21:27:00,
2013-06-26 17:33:00,76.3,71.1,29.71,NE,45,2.2,2.2,84,0.00,,,0.00,meteobridge,2013-06-26 21:33:00,
2013-06-26 17:38:00,75.7,70.5,29.72,NE,45,0.7,0.7,84,0.00,,,0.00,meteobridge,2013-06-26 21:38:00,
2013-06-26 17:43:00,75.4,70.2,29.73,SW,225,0.7,1.6,84,0.00,,,0.00,meteobridge,2013-06-26 21:43:00,
2013-06-26 17:48:00,75.4,70.2,29.74,NE,45,1.6,1.6,84,0.00,,,0.00,meteobridge,2013-06-26 21:48:00,
2013-06-26 17:53:00,75.2,70.0,29.74,West,270,0.7,1.6,84,0.00,,,0.00,meteobridge,2013-06-26 21:53:00,
2013-06-26 17:58:00,75.2,70.0,29.75,NE,45,0.0,0.7,84,0.00,,,0.00,meteobridge,2013-06-26 21:58:00,
2013-06-26 18:04:00,75.2,70.0,29.74,NE,45,0.0,0.0,84,0.00,,,0.00,meteobridge,2013-06-26 22:04:00,
2013-06-26 18:09:00,75.2,70.3,29.74,NE,45,0.0,0.7,85,0.00,,,0.00,meteobridge,2013-06-26 22:09:00,
2013-06-26 18:14:00,75.6,70.7,29.74,West,270,0.0,0.0,85,0.00,,,0.00,meteobridge,2013-06-26 22:14:00,
2013-06-26 18:19:00,75.9,71.1,29.74,East,90,1.6,1.6,85,0.00,,,0.00,meteobridge,2013-06-26 22:19:00,
2013-06-26 18:24:00,76.1,71.2,29.74,West,270,0.0,0.0,85,0.00,,,0.00,meteobridge,2013-06-26 22:24:00,
2013-06-26 18:29:00,76.3,71.1,29.74,SE,135,1.6,1.6,84,0.00,,,0.00,meteobridge,2013-06-26 22:29:00,
2013-06-26 18:35:00,76.1,70.9,29.74,NE,45,0.0,0.0,84,0.00,,,0.00,meteobridge,2013-06-26 22:35:00,
2013-06-26 18:40:00,75.9,70.7,29.74,West,270,0.0,0.0,84,0.00,,,0.00,meteobridge,2013-06-26 22:40:00,
2013-06-26 18:45:00,75.9,71.1,29.74,West,270,0.0,0.0,85,0.00,,,0.00,meteobridge,2013-06-26 22:45:00,
2013-06-26 18:50:00,75.9,71.1,29.74,SW,225,0.0,0.0,85,0.00,,,0.00,meteobridge,2013-06-26 22:50:00,
2013-06-26 18:55:00,75.9,71.1,29.75,SW,225,0.0,0.0,85,0.00,,,0.00,meteobridge,2013-06-26 22:55:00,
2013-06-26 19:00:00,75.9,71.1,29.75,West,270,0.0,0.0,85,0.00,,,0.00,meteobridge,2013-06-26 23:00:00,
2013-06-26 19:06:00,75.9,71.1,29.75,North,0,0.0,0.0,85,0.00,,,0.00,meteobridge,2013-06-26 23:06:00,
2013-06-26 19:11:00,75.7,70.9,29.75,North,0,0.0,0.0,85,0.00,,,0.00,meteobridge,2013-06-26 23:11:00,
2013-06-26 19:16:00,75.7,70.9,29.75,North,0,0.0,0.0,85,0.00,,,0.00,meteobridge,2013-06-26 23:16:00,
2013-06-26 19:21:00,75.6,70.7,29.76,North,0,0.0,0.0,85,0.00,,,0.00,meteobridge,2013-06-26 23:21:00,
2013-06-26 19:26:00,75.6,70.7,29.76,West,270,0.0,0.7,85,0.00,,,0.00,meteobridge,2013-06-26 23:26:00,
2013-06-26 19:29:00,75.4,70.5,29.76,West,270,0.0,0.0,85,0.00,,,0.00,meteobridge,2013-06-26 23:29:00,
2013-06-26 19:34:00,75.2,70.3,29.78,South,180,0.0,0.7,85,0.00,,,0.00,meteobridge,2013-06-26 23:34:00,
2013-06-26 19:39:00,74.8,70.3,29.78,NE,45,1.6,1.6,86,0.00,,,0.00,meteobridge,2013-06-26 23:39:00,
2013-06-26 19:45:00,74.3,69.8,29.78,East,90,0.7,2.2,86,0.00,,,0.00,meteobridge,2013-06-26 23:45:00,
2013-06-26 19:50:00,73.4,68.9,29.77,NE,45,1.6,1.6,86,0.00,,,0.00,meteobridge,2013-06-26 23:50:00,
2013-06-26 19:55:00,72.9,68.0,29.77,West,270,0.7,0.7,85,0.00,,,0.00,meteobridge,2013-06-26 23:55:00,
2013-06-26 20:00:00,72.5,68.0,29.78,NE,45,0.7,0.7,86,0.00,,,0.00,meteobridge,2013-06-27 00:00:00,
2013-06-26 20:05:00,72.3,68.2,29.77,NE,45,0.0,0.7,87,0.00,,,0.00,meteobridge,2013-06-27 00:05:00,
2013-06-26 20:10:00,72.1,68.0,29.77,South,180,0.0,0.0,87,0.00,,,0.00,meteobridge,2013-06-27 00:10:00,
2013-06-26 20:16:00,72.0,68.2,29.78,East,90,0.7,0.7,88,0.00,,,0.00,meteobridge,2013-06-27 00:16:00,
2013-06-26 20:21:00,71.6,68.2,29.78,West,270,0.0,0.0,89,0.00,,,0.00,meteobridge,2013-06-27 00:21:00,
2013-06-26 20:26:00,71.6,68.2,29.78,NW,315,0.0,0.7,89,0.01,,,0.01,meteobridge,2013-06-27 00:26:00,
2013-06-26 20:31:00,71.2,68.5,29.78,West,270,0.0,0.0,91,0.01,,,0.01,meteobridge,2013-06-27 00:31:00,
2013-06-26 20:36:00,71.1,68.4,29.78,West,270,0.0,0.0,91,0.01,,,0.01,meteobridge,2013-06-27 00:36:00,
2013-06-26 20:41:00,71.1,68.5,29.78,SW,225,0.0,0.0,92,0.01,,,0.01,meteobridge,2013-06-27 00:41:00,
2013-06-26 20:47:00,70.9,68.4,29.78,SW,225,0.0,0.0,92,0.01,,,0.01,meteobridge,2013-06-27 00:47:00,
2013-06-26 20:48:00,70.9,68.4,29.78,East,90,0.0,0.0,92,0.01,,,0.01,meteobridge,2013-06-27 00:48:00,
2013-06-26 20:53:00,70.9,68.7,29.79,NW,315,0.0,0.0,93,0.01,,,0.01,meteobridge,2013-06-27 00:53:00,
2013-06-26 20:58:00,70.9,68.7,29.79,West,270,0.0,0.7,93,0.01,,,0.01,meteobridge,2013-06-27 00:58:00,
2013-06-26 21:04:00,70.9,68.7,29.79,East,90,0.7,0.7,93,0.01,,,0.01,meteobridge,2013-06-27 01:04:00,
2013-06-26 21:09:00,70.7,68.5,29.79,North,0,0.0,0.7,93,0.01,,,0.01,meteobridge,2013-06-27 01:09:00,
2013-06-26 21:14:00,70.5,68.4,29.79,NE,45,0.7,0.7,93,0.01,,,0.01,meteobridge,2013-06-27 01:14:00,
2013-06-26 21:19:00,70.3,68.5,29.79,NE,45,0.0,0.0,94,0.01,,,0.01,meteobridge,2013-06-27 01:19:00,
2013-06-26 21:24:00,70.2,68.4,29.79,NE,45,0.0,0.7,94,0.00,,,0.01,meteobridge,2013-06-27 01:24:00,
2013-06-26 21:29:00,70.0,68.2,29.80,West,270,0.0,0.0,94,0.00,,,0.01,meteobridge,2013-06-27 01:29:00,
2013-06-26 21:35:00,69.8,68.0,29.79,North,0,0.0,0.0,94,0.00,,,0.01,meteobridge,2013-06-27 01:35:00,
2013-06-26 21:40:00,69.8,68.0,29.79,NE,45,0.0,0.0,94,0.00,,,0.01,meteobridge,2013-06-27 01:40:00,
2013-06-26 21:45:00,69.8,68.0,29.80,North,0,0.0,0.0,94,0.00,,,0.01,meteobridge,2013-06-27 01:45:00,
2013-06-26 21:50:00,69.8,68.0,29.80,SW,225,0.0,0.0,94,0.00,,,0.01,meteobridge,2013-06-27 01:50:00,
2013-06-26 21:55:00,69.6,68.2,29.80,SW,225,0.0,0.0,95,0.00,,,0.01,meteobridge,2013-06-27 01:55:00,
2013-06-26 22:00:00,69.6,68.4,29.80,NE,45,0.7,0.7,96,0.00,,,0.01,meteobridge,2013-06-27 02:00:00,
2013-06-26 22:06:00,69.4,68.2,29.80,NE,45,0.0,0.0,96,0.00,,,0.01,meteobridge,2013-06-27 02:06:00,
2013-06-26 22:11:00,69.4,68.2,29.80,East,90,0.0,0.0,96,0.00,,,0.01,meteobridge,2013-06-27 02:11:00,
2013-06-26 22:16:00,69.4,68.2,29.80,East,90,0.0,0.0,96,0.00,,,0.01,meteobridge,2013-06-27 02:16:00,
2013-06-26 22:21:00,69.3,68.0,29.80,NW,315,0.0,0.0,96,0.00,,,0.01,meteobridge,2013-06-27 02:21:00,
2013-06-26 22:26:00,69.3,68.0,29.81,West,270,0.0,0.0,96,0.00,,,0.01,meteobridge,2013-06-27 02:26:00,
2013-06-26 22:31:00,69.1,67.8,29.81,East,90,0.0,0.7,96,0.00,,,0.01,meteobridge,2013-06-27 02:31:00,
2013-06-26 22:37:00,68.9,67.6,29.81,NW,315,0.0,0.7,96,0.00,,,0.01,meteobridge,2013-06-27 02:37:00,
2013-06-26 22:42:00,68.7,67.5,29.81,West,270,0.0,0.0,96,0.00,,,0.01,meteobridge,2013-06-27 02:42:00,
2013-06-26 22:47:00,68.7,67.5,29.81,SE,135,0.7,0.7,96,0.00,,,0.01,meteobridge,2013-06-27 02:47:00,
2013-06-26 22:52:00,68.5,67.3,29.82,North,0,0.7,0.7,96,0.00,,,0.01,meteobridge,2013-06-27 02:52:00,
2013-06-26 22:57:00,68.4,67.1,29.82,NE,45,0.0,0.0,96,0.00,,,0.01,meteobridge,2013-06-27 02:57:00,
2013-06-26 23:02:00,68.4,67.1,29.82,NE,45,0.0,0.7,96,0.00,,,0.01,meteobridge,2013-06-27 03:02:00,
2013-06-26 23:08:00,68.4,67.1,29.82,West,270,0.0,0.0,96,0.00,,,0.01,meteobridge,2013-06-27 03:08:00,
2013-06-26 23:13:00,68.4,67.1,29.82,NE,45,0.0,0.7,96,0.00,,,0.01,meteobridge,2013-06-27 03:13:00,
2013-06-26 23:18:00,68.2,66.9,29.81,NE,45,0.0,0.0,96,0.00,,,0.01,meteobridge,2013-06-27 03:18:00,
2013-06-26 23:23:00,68.2,66.9,29.82,NE,45,0.0,0.0,96,0.00,,,0.01,meteobridge,2013-06-27 03:23:00,
2013-06-26 23:28:00,68.2,66.9,29.82,NE,45,0.0,0.0,96,0.00,,,0.01,meteobridge,2013-06-27 03:28:00,
2013-06-26 23:33:00,68.0,66.7,29.82,NE,45,0.0,0.0,96,0.00,,,0.01,meteobridge,2013-06-27 03:33:00,
2013-06-26 23:39:00,67.8,66.9,29.82,West,270,0.0,0.0,97,0.00,,,0.01,meteobridge,2013-06-27 03:39:00,
2013-06-26 23:44:00,67.6,66.7,29.82,West,270,0.0,0.0,97,0.00,,,0.01,meteobridge,2013-06-27 03:44:00,
2013-06-26 23:49:00,67.6,66.7,29.81,East,90,0.0,0.0,97,0.00,,,0.01,meteobridge,2013-06-27 03:49:00,
2013-06-26 23:54:00,67.5,66.6,29.81,East,90,0.0,0.0,97,0.00,,,0.01,meteobridge,2013-06-27 03:54:00,
2013-06-26 23:59:00,67.3,66.4,29.81,East,90,0.0,0.0,97,0.00,,,0.01,meteobridge,2013-06-27 03:59:00,